Terminal Aerodrome Forecast
Issued by NWS Portland, OR

Home | Current Version | Previous Version | Text Only | Print | Product List | Glossary On
Versions: 1 2 3 4 5 6 7 8 9 10 11 12 13 14 15 16 17 18 19 20 21 22 23 24 25 26 27 28 29 30
610
FTUS46 KPQR 261739
TAFTTD
TAF
KTTD 261739Z 2618/2718 16007KT 6SM -SHRA OVC019
     FM262000 19007KT P6SM -SHRA SCT025 BKN040
     FM270200 15005KT P6SM -SHRA SCT025 BKN040
     FM270400 15003KT P6SM VCSH BKN040=

USA.gov is the U.S. government's official web portal to all federal, state and local government web resources and services.